createdAt,value
2017-05-24T00:01:18.314Z,15.94
2017-05-24T00:02:18.939Z,15.91
2017-05-24T00:03:19.529Z,15.99
2017-05-24T00:04:20.137Z,15.91
2017-05-24T00:05:20.758Z,15.89
2017-05-24T00:06:21.371Z,15.82
2017-05-24T00:07:21.976Z,15.77
2017-05-24T00:08:22.588Z,15.77
2017-05-24T00:09:23.202Z,15.76
2017-05-24T00:10:23.812Z,15.82
2017-05-24T00:11:24.412Z,15.75
2017-05-24T00:12:25.023Z,15.76
2017-05-24T00:13:25.624Z,15.76
2017-05-24T00:14:26.224Z,15.71
2017-05-24T00:15:26.834Z,15.64
2017-05-24T00:16:27.495Z,15.73
2017-05-24T00:17:28.098Z,15.62
2017-05-24T00:18:28.698Z,15.68
2017-05-24T00:19:29.310Z,15.67
2017-05-24T00:20:29.910Z,15.65
2017-05-24T00:21:30.509Z,15.57
2017-05-24T00:22:31.118Z,15.49
2017-05-24T00:23:31.715Z,15.49
2017-05-24T00:24:32.319Z,15.44
2017-05-24T00:25:32.925Z,15.46
2017-05-24T00:26:33.527Z,15.40
2017-05-24T00:27:34.142Z,15.39
2017-05-24T00:28:34.741Z,15.37
2017-05-24T00:29:35.354Z,15.37
2017-05-24T00:30:35.970Z,15.32
2017-05-24T00:31:36.581Z,15.28
2017-05-24T00:32:37.190Z,15.25
2017-05-24T00:33:37.798Z,15.32
2017-05-24T00:34:38.406Z,15.14
2017-05-24T00:35:39.013Z,15.25
2017-05-24T00:36:39.619Z,15.37
2017-05-24T00:37:40.233Z,15.39
2017-05-24T00:38:40.831Z,15.36
2017-05-24T00:39:41.439Z,15.37
2017-05-24T00:40:42.050Z,15.36
2017-05-24T00:41:42.651Z,15.37
2017-05-24T00:42:43.263Z,15.36
2017-05-24T00:43:43.873Z,15.37
2017-05-24T00:44:44.479Z,15.40
2017-05-24T00:45:45.079Z,15.36
2017-05-24T00:46:45.685Z,15.34
2017-05-24T00:47:46.293Z,15.37
2017-05-24T00:48:46.901Z,15.32
2017-05-24T00:49:47.503Z,15.37
2017-05-24T00:50:48.096Z,15.36
2017-05-24T00:51:48.705Z,15.42
2017-05-24T00:52:49.310Z,15.40
2017-05-24T00:53:49.914Z,15.31
2017-05-24T00:54:50.523Z,15.28
2017-05-24T00:55:51.133Z,15.28
2017-05-24T00:56:51.750Z,15.40
2017-05-24T00:57:52.364Z,15.17
2017-05-24T00:58:52.965Z,15.21
2017-05-24T00:59:53.580Z,15.22
2017-05-24T01:00:54.194Z,15.28
2017-05-24T01:01:54.790Z,15.17
2017-05-24T01:02:55.428Z,15.24
2017-05-24T01:03:56.007Z,15.19
2017-05-24T01:04:56.612Z,15.09
2017-05-24T01:05:57.211Z,15.09
2017-05-24T01:06:57.823Z,15.09
2017-05-24T01:07:58.439Z,15.11
2017-05-24T01:08:59.040Z,15.01
2017-05-24T01:09:59.649Z,14.94
2017-05-24T01:11:00.249Z,14.96
2017-05-24T01:12:00.859Z,14.89
2017-05-24T01:13:01.468Z,14.88
2017-05-24T01:14:02.080Z,15.00
2017-05-24T01:15:02.678Z,14.95
2017-05-24T01:16:03.285Z,14.95
2017-05-24T01:17:03.898Z,14.92
2017-05-24T01:18:04.509Z,14.96
2017-05-24T01:19:05.123Z,14.89
2017-05-24T01:20:05.722Z,14.92
2017-05-24T01:21:06.319Z,14.95
2017-05-24T01:22:06.928Z,15.00
2017-05-24T01:23:07.539Z,14.94
2017-05-24T01:24:08.141Z,14.78
2017-05-24T01:25:08.737Z,14.77
2017-05-24T01:26:09.351Z,14.69
2017-05-24T01:27:09.965Z,14.70
2017-05-24T01:28:10.578Z,14.63
2017-05-24T01:29:11.177Z,14.62
2017-05-24T01:30:11.841Z,14.63
2017-05-24T01:31:12.384Z,14.60
2017-05-24T01:32:12.982Z,14.55
2017-05-24T01:33:13.584Z,14.54
2017-05-24T01:34:14.198Z,14.47
2017-05-24T01:35:14.812Z,14.47
2017-05-24T01:36:15.428Z,14.36
2017-05-24T01:37:16.033Z,14.18
2017-05-24T01:38:16.641Z,14.29
2017-05-24T01:39:17.255Z,14.21
2017-05-24T01:40:17.865Z,14.26
2017-05-24T01:41:18.476Z,14.23
2017-05-24T01:42:19.088Z,14.21
2017-05-24T01:43:19.758Z,14.23
2017-05-24T01:44:20.370Z,14.18
2017-05-24T01:45:20.983Z,14.18
2017-05-24T01:46:21.592Z,14.11
2017-05-24T01:47:22.199Z,14.14
2017-05-24T01:48:22.807Z,14.15
2017-05-24T01:49:23.420Z,14.14
2017-05-24T01:50:24.032Z,14.05
2017-05-24T01:51:24.629Z,14.07
2017-05-24T01:52:25.241Z,14.02
2017-05-24T01:53:25.849Z,13.94
2017-05-24T01:54:26.463Z,13.92
2017-05-24T01:55:27.076Z,13.82
2017-05-24T01:56:27.673Z,13.89
2017-05-24T01:57:28.287Z,13.89
2017-05-24T01:58:28.890Z,13.78
2017-05-24T01:59:29.497Z,13.75
2017-05-24T02:00:30.094Z,13.82
2017-05-24T02:01:30.705Z,13.75
2017-05-24T02:02:31.303Z,13.77
2017-05-24T02:03:31.911Z,13.79
2017-05-24T02:04:32.518Z,13.75
2017-05-24T02:05:33.129Z,13.75
2017-05-24T02:06:33.737Z,13.72
2017-05-24T02:07:34.348Z,13.77
2017-05-24T02:08:34.961Z,13.77
2017-05-24T02:09:35.573Z,13.69
2017-05-24T02:10:36.170Z,13.74
2017-05-24T02:11:36.777Z,13.72
2017-05-24T02:12:37.388Z,13.72
2017-05-24T02:13:38.000Z,13.69
2017-05-24T02:14:38.613Z,13.59
2017-05-24T02:15:39.221Z,13.64
2017-05-24T02:16:39.831Z,13.60
2017-05-24T02:17:40.440Z,13.59
2017-05-24T02:18:41.054Z,13.52
2017-05-24T02:19:41.666Z,13.46
2017-05-24T02:20:42.282Z,13.46
2017-05-24T02:21:42.879Z,13.45
2017-05-24T02:22:43.475Z,13.39
2017-05-24T02:23:44.071Z,13.44
2017-05-24T02:24:44.672Z,13.44
2017-05-24T02:25:45.283Z,13.49
2017-05-24T02:26:45.878Z,13.44
2017-05-24T02:27:46.476Z,13.45
2017-05-24T02:28:47.085Z,13.42
2017-05-24T02:29:47.692Z,13.41
2017-05-24T02:30:48.303Z,13.46
2017-05-24T02:31:48.916Z,13.46
2017-05-24T02:32:49.522Z,13.59
2017-05-24T02:33:50.129Z,13.60
2017-05-24T02:34:50.729Z,13.69
2017-05-24T02:35:51.342Z,13.63
2017-05-24T02:36:51.987Z,13.59
2017-05-24T02:37:52.585Z,13.59
2017-05-24T02:38:53.192Z,13.64
2017-05-24T02:39:53.795Z,13.63
2017-05-24T02:40:54.407Z,13.63
2017-05-24T02:41:55.022Z,13.74
2017-05-24T02:42:55.634Z,13.68
2017-05-24T02:43:56.229Z,13.71
2017-05-24T02:44:56.828Z,13.72
2017-05-24T02:45:57.435Z,13.75
2017-05-24T02:46:58.030Z,13.71
2017-05-24T02:47:58.631Z,13.72
2017-05-24T02:48:59.244Z,13.75
2017-05-24T02:49:59.842Z,13.77
2017-05-24T02:51:00.444Z,13.56
2017-05-24T02:52:01.059Z,13.60
2017-05-24T02:53:01.658Z,13.57
2017-05-24T02:54:02.259Z,13.59
2017-05-24T02:55:02.866Z,13.60
2017-05-24T02:56:03.466Z,13.63
2017-05-24T02:57:04.074Z,13.78
2017-05-24T02:58:04.682Z,13.74
2017-05-24T02:59:05.292Z,13.71
2017-05-24T03:00:05.907Z,13.72
2017-05-24T03:01:06.519Z,13.75
2017-05-24T03:02:07.129Z,13.74
2017-05-24T03:03:07.745Z,13.81
2017-05-24T03:04:08.355Z,13.77
2017-05-24T03:05:08.955Z,13.74
2017-05-24T03:06:09.564Z,13.72
2017-05-24T03:07:10.232Z,13.74
2017-05-24T03:08:10.851Z,13.61
2017-05-24T03:09:11.453Z,13.56
2017-05-24T03:10:12.065Z,13.61
2017-05-24T03:11:12.673Z,13.60
2017-05-24T03:12:13.275Z,13.61
2017-05-24T03:13:13.887Z,13.68
2017-05-24T03:14:14.498Z,13.63
2017-05-24T03:15:15.114Z,13.59
2017-05-24T03:16:15.728Z,13.74
2017-05-24T03:17:16.340Z,13.74
2017-05-24T03:18:16.939Z,13.74
2017-05-24T03:19:17.540Z,13.74
2017-05-24T03:20:18.140Z,13.78
2017-05-24T03:21:18.737Z,13.78
2017-05-24T03:22:19.337Z,13.79
2017-05-24T03:23:19.954Z,13.77
2017-05-24T03:24:20.561Z,13.89
2017-05-24T03:25:21.163Z,13.86
2017-05-24T03:26:21.763Z,13.86
2017-05-24T03:27:22.364Z,13.93
2017-05-24T03:28:22.971Z,13.94
2017-05-24T03:29:23.586Z,13.93
2017-05-24T03:30:24.185Z,14.07
2017-05-24T03:31:24.784Z,14.02
2017-05-24T03:32:25.398Z,14.11
2017-05-24T03:33:26.016Z,14.10
2017-05-24T03:34:26.625Z,14.12
2017-05-24T03:35:27.240Z,14.12
2017-05-24T03:36:27.850Z,14.10
2017-05-24T03:37:28.458Z,14.15
2017-05-24T03:38:29.061Z,14.12
2017-05-24T03:39:29.673Z,14.18
2017-05-24T03:40:30.295Z,14.17
2017-05-24T03:41:30.894Z,14.18
2017-05-24T03:42:31.509Z,14.15
2017-05-24T03:43:32.123Z,14.10
2017-05-24T03:44:32.723Z,14.05
2017-05-24T03:45:33.391Z,13.94
2017-05-24T03:46:34.003Z,13.89
2017-05-24T03:47:34.608Z,13.86
2017-05-24T03:48:35.226Z,13.89
2017-05-24T03:49:35.841Z,13.93
2017-05-24T03:50:36.502Z,13.93
2017-05-24T03:51:37.040Z,13.93
2017-05-24T03:52:37.641Z,13.93
2017-05-24T03:53:38.257Z,13.93
2017-05-24T03:54:38.864Z,13.79
2017-05-24T03:55:39.482Z,13.72
2017-05-24T03:56:40.094Z,13.75
2017-05-24T03:57:40.696Z,13.75
2017-05-24T03:58:41.310Z,13.71
2017-05-24T03:59:41.924Z,13.72
2017-05-24T04:00:42.525Z,13.74
2017-05-24T04:01:43.142Z,13.77
2017-05-24T04:02:43.759Z,13.74
2017-05-24T04:03:44.374Z,13.72
2017-05-24T04:04:44.990Z,13.74
2017-05-24T04:05:45.594Z,13.77
2017-05-24T04:06:46.197Z,13.72
2017-05-24T04:07:46.817Z,13.75
2017-05-24T04:08:47.434Z,13.63
2017-05-24T04:09:48.048Z,13.60
2017-05-24T04:10:48.661Z,13.64
2017-05-24T04:11:49.262Z,13.64
2017-05-24T04:12:49.867Z,13.59
2017-05-24T04:13:50.482Z,13.60
2017-05-24T04:14:51.084Z,13.61
2017-05-24T04:15:51.700Z,13.72
2017-05-24T04:16:52.320Z,13.72
2017-05-24T04:17:52.935Z,13.72
2017-05-24T04:18:53.545Z,13.79
2017-05-24T04:19:54.161Z,13.81
2017-05-24T04:20:54.776Z,13.82
2017-05-24T04:21:55.389Z,13.77
2017-05-24T04:22:56.004Z,13.86
2017-05-24T04:23:56.610Z,13.93
2017-05-24T04:24:57.215Z,13.97
2017-05-24T04:25:57.827Z,13.97
2017-05-24T04:26:58.434Z,14.03
2017-05-24T04:27:59.039Z,14.17
2017-05-24T04:28:59.659Z,14.07
2017-05-24T04:30:00.277Z,14.21
2017-05-24T04:31:00.909Z,14.25
2017-05-24T04:32:01.527Z,14.32
2017-05-24T04:33:02.128Z,14.43
2017-05-24T04:34:02.742Z,14.50
2017-05-24T04:35:03.347Z,14.50
2017-05-24T04:36:03.952Z,14.63
2017-05-24T04:37:04.573Z,14.78
2017-05-24T04:38:05.174Z,14.73
2017-05-24T04:39:05.790Z,14.86
2017-05-24T04:40:06.400Z,14.95
2017-05-24T04:41:07.007Z,14.94
2017-05-24T04:42:07.620Z,14.94
2017-05-24T04:43:08.232Z,14.96
2017-05-24T04:44:08.840Z,15.00
2017-05-24T04:45:09.449Z,14.95
2017-05-24T04:46:10.050Z,14.96
2017-05-24T04:47:10.657Z,15.06
2017-05-24T04:48:11.277Z,15.07
2017-05-24T04:49:11.885Z,15.24
2017-05-24T04:50:12.495Z,15.28
2017-05-24T04:51:13.096Z,15.36
2017-05-24T04:52:13.716Z,15.49
2017-05-24T04:53:14.338Z,15.64
2017-05-24T04:54:14.957Z,15.67
2017-05-24T04:55:15.568Z,15.75
2017-05-24T04:56:16.188Z,15.94
2017-05-24T04:57:16.810Z,16.29
2017-05-24T04:58:17.430Z,16.63
2017-05-24T04:59:18.039Z,16.90
2017-05-24T05:00:18.657Z,17.04
2017-05-24T05:01:19.268Z,17.60
2017-05-24T05:02:19.889Z,18.14
2017-05-24T05:03:20.563Z,18.65
2017-05-24T05:04:21.193Z,19.09
2017-05-24T05:05:21.818Z,19.33
2017-05-24T05:06:22.441Z,19.67
2017-05-24T05:07:23.055Z,20.03
2017-05-24T05:08:23.680Z,20.34
2017-05-24T05:09:24.299Z,20.32
2017-05-24T05:10:24.920Z,20.29
2017-05-24T05:11:25.543Z,20.51
2017-05-24T05:12:26.162Z,20.84
2017-05-24T05:13:26.783Z,21.07
2017-05-24T05:14:27.407Z,21.39
2017-05-24T05:15:28.033Z,21.67
2017-05-24T05:16:28.664Z,21.89
2017-05-24T05:17:29.279Z,21.91
2017-05-24T05:18:29.892Z,21.72
2017-05-24T05:19:30.512Z,21.42
2017-05-24T05:20:31.136Z,21.28
2017-05-24T05:21:31.747Z,21.14
2017-05-24T05:22:32.365Z,21.00
2017-05-24T05:23:32.995Z,20.92
2017-05-24T05:24:33.623Z,20.95
2017-05-24T05:25:34.246Z,21.20
2017-05-24T05:26:34.868Z,21.42
2017-05-24T05:27:35.492Z,21.62
2017-05-24T05:28:36.118Z,21.98
2017-05-24T05:29:36.730Z,22.05
2017-05-24T05:30:37.358Z,21.91
2017-05-24T05:31:37.987Z,21.89
2017-05-24T05:32:38.611Z,21.83
2017-05-24T05:33:39.232Z,21.62
2017-05-24T05:34:39.853Z,21.39
2017-05-24T05:35:40.476Z,21.51
2017-05-24T05:36:41.105Z,21.25
2017-05-24T05:37:41.724Z,20.98
2017-05-24T05:38:42.342Z,21.02
2017-05-24T05:39:42.970Z,20.96
2017-05-24T05:40:43.579Z,20.77
2017-05-24T05:41:44.203Z,20.77
2017-05-24T05:42:44.822Z,20.75
2017-05-24T05:43:45.448Z,20.57
2017-05-24T05:44:46.073Z,20.84
2017-05-24T05:45:46.698Z,21.05
2017-05-24T05:46:47.309Z,20.96
2017-05-24T05:47:47.926Z,20.84
2017-05-24T05:48:48.548Z,20.69
2017-05-24T05:49:49.169Z,20.67
2017-05-24T05:50:49.791Z,20.91
2017-05-24T05:51:50.413Z,21.25
2017-05-24T05:52:51.025Z,21.54
2017-05-24T05:53:51.657Z,21.75
2017-05-24T05:54:52.274Z,21.95
2017-05-24T05:55:52.895Z,22.42
2017-05-24T05:56:53.525Z,22.70
2017-05-24T05:57:54.141Z,22.72
2017-05-24T05:58:54.770Z,22.84
2017-05-24T05:59:55.395Z,23.21
2017-05-24T06:00:56.079Z,23.28
2017-05-24T06:01:56.710Z,23.27
2017-05-24T06:02:57.344Z,23.06
2017-05-24T06:03:57.971Z,22.73
2017-05-24T06:04:58.599Z,22.46
2017-05-24T06:05:59.210Z,22.46
2017-05-24T06:06:59.826Z,22.54
2017-05-24T06:08:00.448Z,22.36
2017-05-24T06:09:01.061Z,22.32
2017-05-24T06:10:01.730Z,22.02
2017-05-24T06:11:02.357Z,21.85
2017-05-24T06:12:02.973Z,21.62
2017-05-24T06:13:03.599Z,21.65
2017-05-24T06:14:04.233Z,21.95
2017-05-24T06:15:04.863Z,22.01
2017-05-24T06:16:05.477Z,21.83
2017-05-24T06:17:06.114Z,21.85
2017-05-24T06:18:06.739Z,21.76
2017-05-24T06:19:07.369Z,21.96
2017-05-24T06:20:08.000Z,22.24
2017-05-24T06:21:08.630Z,22.29
2017-05-24T06:22:09.259Z,22.24
2017-05-24T06:23:09.873Z,22.18
2017-05-24T06:24:10.493Z,22.23
2017-05-24T06:25:11.106Z,22.62
2017-05-24T06:26:11.734Z,22.81
2017-05-24T06:27:12.359Z,22.91
2017-05-24T06:28:12.974Z,22.90
2017-05-24T06:29:13.602Z,22.70
2017-05-24T06:30:14.225Z,22.54
2017-05-24T06:31:14.853Z,22.44
2017-05-24T06:32:15.478Z,22.32
2017-05-24T06:33:16.102Z,22.24
2017-05-24T06:34:16.729Z,22.03
2017-05-24T06:35:17.354Z,22.03
2017-05-24T06:36:17.979Z,22.05
2017-05-24T06:37:18.601Z,22.05
2017-05-24T06:38:19.213Z,22.08
2017-05-24T06:39:19.827Z,21.86
2017-05-24T06:40:20.452Z,21.77
2017-05-24T06:41:21.079Z,21.64
2017-05-24T06:42:21.701Z,21.51
2017-05-24T06:43:22.316Z,21.36
2017-05-24T06:44:22.931Z,21.15
2017-05-24T06:45:23.554Z,21.15
2017-05-24T06:46:24.168Z,21.12
2017-05-24T06:47:24.791Z,20.95
2017-05-24T06:48:25.408Z,20.90
2017-05-24T06:49:26.027Z,20.91
2017-05-24T06:50:26.692Z,20.96
2017-05-24T06:51:27.318Z,20.85
2017-05-24T06:52:27.952Z,20.82
2017-05-24T06:53:28.559Z,20.81
2017-05-24T06:54:29.179Z,20.78
2017-05-24T06:55:29.801Z,20.80
2017-05-24T06:56:30.422Z,20.84
2017-05-24T06:57:31.031Z,20.81
2017-05-24T06:58:31.647Z,20.80
2017-05-24T06:59:32.320Z,20.99
2017-05-24T07:00:32.903Z,21.10
2017-05-24T07:01:33.530Z,21.64
2017-05-24T07:02:34.152Z,22.01
2017-05-24T07:03:34.780Z,22.17
2017-05-24T07:04:35.408Z,22.26
2017-05-24T07:05:36.034Z,22.60
2017-05-24T07:06:36.647Z,22.66
2017-05-24T07:07:37.270Z,23.09
2017-05-24T07:08:37.901Z,23.51
2017-05-24T07:09:38.516Z,23.95
2017-05-24T07:10:39.151Z,24.11
2017-05-24T07:11:39.777Z,24.03
2017-05-24T07:12:40.406Z,23.65
2017-05-24T07:13:41.024Z,23.98
2017-05-24T07:14:41.656Z,24.18
2017-05-24T07:15:42.272Z,24.69
2017-05-24T07:16:42.906Z,24.88
2017-05-24T07:17:43.539Z,24.94
2017-05-24T07:18:44.171Z,24.57
2017-05-24T07:19:44.810Z,24.21
2017-05-24T07:20:45.439Z,23.87
2017-05-24T07:21:46.063Z,23.58
2017-05-24T07:22:46.689Z,23.54
2017-05-24T07:23:47.305Z,23.68
2017-05-24T07:24:47.929Z,23.40
2017-05-24T07:25:48.543Z,23.35
2017-05-24T07:26:49.172Z,23.21
2017-05-24T07:27:49.846Z,23.05
2017-05-24T07:28:50.472Z,22.91
2017-05-24T07:29:51.093Z,23.00
2017-05-24T07:30:51.717Z,22.85
2017-05-24T07:31:52.347Z,22.97
2017-05-24T07:32:52.973Z,22.91
2017-05-24T07:33:53.636Z,22.63
2017-05-24T07:34:54.227Z,22.42
2017-05-24T07:35:54.857Z,22.31
2017-05-24T07:36:55.478Z,22.23
2017-05-24T07:37:56.098Z,22.24
2017-05-24T07:38:56.721Z,22.26
2017-05-24T07:39:57.340Z,22.21
2017-05-24T07:40:57.978Z,22.38
2017-05-24T07:41:58.600Z,22.40
2017-05-24T07:42:59.209Z,22.50
2017-05-24T07:43:59.833Z,22.50
2017-05-24T08:52:30.423Z,25.78
2017-05-24T08:53:31.043Z,26.19
2017-05-24T08:54:31.659Z,26.61
2017-05-24T08:55:32.281Z,26.34
2017-05-24T08:56:32.900Z,26.44
2017-05-24T08:57:33.515Z,26.87
2017-05-24T08:58:34.142Z,26.99
2017-05-24T08:59:34.769Z,27.14
2017-05-24T09:00:35.394Z,26.96
2017-05-24T09:01:36.021Z,26.71
2017-05-24T09:02:36.636Z,26.63
2017-05-24T09:03:37.264Z,27.14
2017-05-24T09:04:37.898Z,27.29
2017-05-24T09:05:38.504Z,27.45
2017-05-24T09:06:39.136Z,27.81
2017-05-24T09:07:39.764Z,28.18
2017-05-24T09:08:40.393Z,27.70
2017-05-24T09:09:41.024Z,27.45
2017-05-24T09:10:41.643Z,27.30
2017-05-24T09:11:42.261Z,27.24
2017-05-24T09:12:42.882Z,27.06
2017-05-24T09:13:43.511Z,26.83
2017-05-24T09:14:44.138Z,26.83
2017-05-24T09:15:44.758Z,26.88
2017-05-24T09:16:45.435Z,26.93
2017-05-24T09:17:46.094Z,26.87
2017-05-24T09:18:46.681Z,26.80
2017-05-24T09:19:47.300Z,26.98
2017-05-24T09:20:47.931Z,26.93
2017-05-24T09:21:48.554Z,26.85
2017-05-24T09:22:49.170Z,27.00
2017-05-24T09:23:49.795Z,27.15
2017-05-24T09:24:50.429Z,27.10
2017-05-24T09:25:51.045Z,27.20
2017-05-24T09:26:51.679Z,27.24
2017-05-24T09:27:52.296Z,27.29
2017-05-24T09:28:52.929Z,27.52
2017-05-24T09:29:53.561Z,27.93
2017-05-24T09:30:54.195Z,28.15
2017-05-24T09:31:54.813Z,28.27
2017-05-24T09:32:55.440Z,28.29
2017-05-24T09:33:56.080Z,28.08
2017-05-24T09:34:56.707Z,27.42
2017-05-24T09:35:57.325Z,26.92
2017-05-24T09:36:57.952Z,26.59
2017-05-24T09:37:58.569Z,26.51
2017-05-24T09:38:59.196Z,26.16
2017-05-24T09:39:59.827Z,26.05
2017-05-24T09:41:00.459Z,26.13
2017-05-24T09:42:01.092Z,26.69
2017-05-24T09:43:01.721Z,27.13
2017-05-24T09:44:02.345Z,27.29
2017-05-24T09:45:02.963Z,27.05
2017-05-24T09:46:03.594Z,26.91
2017-05-24T09:47:04.261Z,27.06
2017-05-24T09:48:04.896Z,27.36
2017-05-24T09:49:05.517Z,27.23
2017-05-24T09:50:06.147Z,27.02
2017-05-24T09:51:06.766Z,26.99
2017-05-24T09:52:07.398Z,27.25
2017-05-24T09:53:08.031Z,27.50
2017-05-24T09:54:08.661Z,27.43
2017-05-24T09:55:09.285Z,27.10
2017-05-24T09:56:09.909Z,26.87
2017-05-24T09:57:10.532Z,26.73
2017-05-24T09:58:11.155Z,26.63
2017-05-24T09:59:11.783Z,26.47
2017-05-24T10:00:12.397Z,26.16
2017-05-24T10:01:13.023Z,25.98
2017-05-24T10:02:13.638Z,26.26
2017-05-24T10:03:14.268Z,26.36
2017-05-24T10:04:14.895Z,26.29
2017-05-24T10:05:15.570Z,26.16
2017-05-24T10:06:16.184Z,26.54
2017-05-24T10:07:16.809Z,26.92
2017-05-24T10:08:17.443Z,26.74
2017-05-24T10:09:18.075Z,26.59
2017-05-24T10:10:18.753Z,26.71
2017-05-24T10:11:19.379Z,26.85
2017-05-24T10:12:19.993Z,26.81
2017-05-24T10:13:20.619Z,26.87
2017-05-24T10:14:21.233Z,26.98
2017-05-24T10:15:21.855Z,27.20
2017-05-24T10:16:22.469Z,27.02
2017-05-24T10:17:23.087Z,27.02
2017-05-24T10:18:23.715Z,26.87
2017-05-24T10:19:24.345Z,26.62
2017-05-24T10:20:24.955Z,26.43
2017-05-24T10:21:25.582Z,26.25
2017-05-24T10:22:26.205Z,26.09
2017-05-24T10:23:26.835Z,25.99
2017-05-24T10:24:27.461Z,25.95
2017-05-24T10:25:28.087Z,26.13
2017-05-24T10:26:28.715Z,26.03
2017-05-24T10:27:29.351Z,25.99
2017-05-24T10:28:29.958Z,25.88
2017-05-24T10:29:30.586Z,26.26
2017-05-24T10:30:31.219Z,26.59
2017-05-24T10:31:31.846Z,26.55
2017-05-24T10:32:32.460Z,26.66
2017-05-24T10:33:33.079Z,26.54
2017-05-24T10:34:33.704Z,26.63
2017-05-24T10:35:34.330Z,26.95
2017-05-24T10:36:34.946Z,26.98
2017-05-24T10:37:35.569Z,27.28
2017-05-24T10:38:36.191Z,27.06
2017-05-24T10:39:36.807Z,26.93
2017-05-24T10:40:37.441Z,26.84
2017-05-24T10:41:38.073Z,26.88
2017-05-24T10:42:38.703Z,27.00
2017-05-24T10:43:39.331Z,27.05
2017-05-24T10:44:39.957Z,26.77
2017-05-24T10:45:40.587Z,26.61
2017-05-24T10:46:41.214Z,26.47
2017-05-24T10:47:41.842Z,26.31
2017-05-24T10:48:42.465Z,26.41
2017-05-24T10:49:43.091Z,26.22
2017-05-24T10:50:43.708Z,25.84
2017-05-24T10:51:44.336Z,25.81
2017-05-24T10:52:44.967Z,25.61
2017-05-24T10:53:45.594Z,25.50
2017-05-24T10:54:46.214Z,25.51
2017-05-24T10:55:46.837Z,25.50
2017-05-24T10:56:47.452Z,25.61
2017-05-24T10:57:48.062Z,25.84
2017-05-24T10:58:48.686Z,25.99
2017-05-24T10:59:49.314Z,26.02
2017-05-24T11:00:49.943Z,26.29
2017-05-24T11:01:50.575Z,26.32
2017-05-24T11:02:51.186Z,26.28
2017-05-24T11:03:51.798Z,26.13
2017-05-24T11:04:52.423Z,26.00
2017-05-24T11:05:53.271Z,26.02
2017-05-24T11:06:53.887Z,25.90
2017-05-24T11:07:54.510Z,25.62
2017-05-24T11:08:55.139Z,25.39
2017-05-24T11:09:55.766Z,25.28
2017-05-24T11:10:56.374Z,25.18
2017-05-24T11:11:57.001Z,25.25
2017-05-24T11:12:57.620Z,25.24
2017-05-24T11:13:58.247Z,25.11
2017-05-24T11:14:58.877Z,25.21
2017-05-24T11:15:59.508Z,25.35
2017-05-24T11:17:00.139Z,25.63
2017-05-24T11:18:00.763Z,25.75
2017-05-24T11:19:01.390Z,25.90
2017-05-24T11:20:02.019Z,25.95
2017-05-24T11:21:02.644Z,26.03
2017-05-24T11:22:03.258Z,26.03
2017-05-24T11:23:03.869Z,25.93
2017-05-24T11:24:04.481Z,25.78
2017-05-24T11:25:05.096Z,25.71
2017-05-24T11:26:05.716Z,25.75
2017-05-24T11:27:06.397Z,25.71
2017-05-24T11:28:07.021Z,25.83
2017-05-24T11:29:07.635Z,25.75
2017-05-24T11:30:08.248Z,25.91
2017-05-24T11:31:08.870Z,26.24
2017-05-24T11:32:09.482Z,26.18
2017-05-24T11:33:10.107Z,26.36
2017-05-24T11:34:10.738Z,26.63
2017-05-24T11:35:11.354Z,26.87
2017-05-24T11:36:11.968Z,26.76
2017-05-24T11:37:12.593Z,27.10
2017-05-24T11:38:13.205Z,27.28
2017-05-24T11:39:13.837Z,27.20
2017-05-24T11:40:14.463Z,27.00
2017-05-24T11:41:15.092Z,26.84
2017-05-24T11:42:15.724Z,26.85
2017-05-24T11:43:16.342Z,26.61
2017-05-24T11:44:16.964Z,26.51
2017-05-24T11:45:17.596Z,26.26
2017-05-24T11:46:18.228Z,26.13
2017-05-24T11:47:18.859Z,26.16
2017-05-24T11:48:19.485Z,26.12
2017-05-24T11:49:20.096Z,26.24
2017-05-24T11:50:20.837Z,26.24
2017-05-24T11:51:21.461Z,26.18
2017-05-24T11:52:22.088Z,25.91
2017-05-24T11:53:22.722Z,26.00
2017-05-24T11:54:23.353Z,26.50
2017-05-24T11:55:23.961Z,26.74
2017-05-24T11:56:24.590Z,26.74
2017-05-24T11:57:25.222Z,26.56
2017-05-24T11:58:25.844Z,26.46
2017-05-24T11:59:26.454Z,26.22
2017-05-24T12:00:27.066Z,26.05
2017-05-24T12:01:27.692Z,26.08
2017-05-24T12:02:28.308Z,26.13
2017-05-24T12:03:28.930Z,26.47
2017-05-24T12:04:29.552Z,26.40
2017-05-24T12:05:30.181Z,26.21
2017-05-24T12:06:30.813Z,25.94
2017-05-24T12:07:31.431Z,26.05
2017-05-24T12:08:32.267Z,26.06
2017-05-24T12:09:32.896Z,25.86
2017-05-24T12:10:33.505Z,25.69
2017-05-24T12:11:34.128Z,25.65
2017-05-24T12:12:34.752Z,25.61
2017-05-24T12:13:35.373Z,25.75
2017-05-24T12:14:36.407Z,25.81
2017-05-24T12:15:37.027Z,25.75
2017-05-24T12:16:37.654Z,25.72
2017-05-24T12:17:38.274Z,25.73
2017-05-24T12:18:38.891Z,25.69
2017-05-24T12:19:39.517Z,25.68
2017-05-24T12:20:40.149Z,25.76
2017-05-24T12:21:40.777Z,25.83
2017-05-24T12:22:41.397Z,25.94
2017-05-24T12:23:42.023Z,26.05
2017-05-24T12:24:42.653Z,26.00
2017-05-24T12:25:43.269Z,26.06
2017-05-24T12:26:43.882Z,25.95
2017-05-24T12:27:44.503Z,26.00
2017-05-24T12:28:45.117Z,25.99
2017-05-24T12:29:45.731Z,25.83
2017-05-24T12:30:46.353Z,25.76
2017-05-24T12:31:46.987Z,25.87
2017-05-24T12:32:47.612Z,25.87
2017-05-24T12:33:48.239Z,25.81
2017-05-24T12:34:48.847Z,25.80
2017-05-24T12:35:49.469Z,25.88
2017-05-24T12:36:50.097Z,25.80
2017-05-24T12:37:50.723Z,25.78
2017-05-24T12:38:51.354Z,25.87
2017-05-24T12:39:51.977Z,25.87
2017-05-24T12:40:52.594Z,25.75
2017-05-24T12:41:53.218Z,25.93
2017-05-24T12:42:53.847Z,25.98
2017-05-24T12:43:54.467Z,26.02
2017-05-24T12:44:55.085Z,26.26
2017-05-24T12:45:55.710Z,26.61
2017-05-24T12:46:56.337Z,26.59
2017-05-24T12:47:56.965Z,26.88
2017-05-24T12:48:57.595Z,26.93
2017-05-24T12:49:58.226Z,27.10
2017-05-24T12:50:58.853Z,27.24
2017-05-24T12:51:59.485Z,27.10
2017-05-24T12:53:01.092Z,26.85
2017-05-24T12:54:01.703Z,26.76
2017-05-24T12:55:02.321Z,26.74
2017-05-24T12:56:02.939Z,27.08
2017-05-24T12:57:03.561Z,27.08
2017-05-24T12:58:04.189Z,27.05
2017-05-24T12:59:04.809Z,27.15
2017-05-24T13:00:05.432Z,27.00
2017-05-24T13:01:06.056Z,27.08
2017-05-24T13:02:06.680Z,27.06
2017-05-24T13:03:07.312Z,26.98
2017-05-24T13:04:07.944Z,26.93
2017-05-24T13:05:08.570Z,26.80
2017-05-24T13:06:09.186Z,26.48
2017-05-24T13:07:09.865Z,26.24
2017-05-24T13:08:10.493Z,26.05
2017-05-24T13:09:11.107Z,25.93
2017-05-24T13:10:11.738Z,26.00
2017-05-24T13:11:12.366Z,26.06
2017-05-24T13:12:13.192Z,26.13
2017-05-24T13:13:13.817Z,26.16
2017-05-24T13:14:14.451Z,25.99
2017-05-24T13:15:15.082Z,26.03
2017-05-24T13:16:15.701Z,26.24
2017-05-24T13:17:16.351Z,26.37
2017-05-24T13:18:17.006Z,26.43
2017-05-24T13:19:17.628Z,26.55
2017-05-24T13:20:18.251Z,26.69
2017-05-24T13:21:18.866Z,26.85
2017-05-24T13:22:19.478Z,26.99
2017-05-24T13:23:20.100Z,27.03
2017-05-24T13:24:20.724Z,27.39
2017-05-24T13:25:21.351Z,27.62
2017-05-24T13:26:21.984Z,27.61
2017-05-24T13:27:22.610Z,27.55
2017-05-24T13:28:23.235Z,27.33
2017-05-24T13:29:23.850Z,27.25
2017-05-24T13:30:24.466Z,27.21
2017-05-24T13:31:25.079Z,27.25
2017-05-24T13:32:25.709Z,26.98
2017-05-24T13:33:26.338Z,27.00
2017-05-24T13:34:26.962Z,26.96
2017-05-24T13:35:27.583Z,26.78
2017-05-24T13:36:28.207Z,26.66
2017-05-24T13:37:28.837Z,26.46
2017-05-24T13:38:29.461Z,26.39
2017-05-24T13:39:30.103Z,26.63
2017-05-24T13:40:30.715Z,26.76
2017-05-24T13:41:31.345Z,26.80
2017-05-24T13:42:31.967Z,26.91
2017-05-24T13:43:32.581Z,27.02
2017-05-24T13:44:33.210Z,26.98
2017-05-24T13:45:33.834Z,27.17
2017-05-24T13:46:34.453Z,27.29
2017-05-24T13:47:35.080Z,27.21
2017-05-24T13:48:35.706Z,27.15
2017-05-24T13:49:36.326Z,27.08
2017-05-24T13:50:36.944Z,26.95
2017-05-24T13:51:37.564Z,26.92
2017-05-24T13:52:38.190Z,27.08
2017-05-24T13:53:38.818Z,27.13
2017-05-24T13:54:39.432Z,27.30
2017-05-24T13:55:40.066Z,27.33
2017-05-24T13:56:40.677Z,27.33
2017-05-24T13:57:41.289Z,27.30
2017-05-24T13:58:41.915Z,27.45
2017-05-24T13:59:42.538Z,27.66
2017-05-24T14:00:43.164Z,27.70
2017-05-24T14:01:43.793Z,27.86
2017-05-24T14:02:44.417Z,28.32
2017-05-24T14:03:45.031Z,28.65
2017-05-24T14:04:45.658Z,28.84
2017-05-24T14:05:46.287Z,28.88
2017-05-24T14:06:46.901Z,28.96
2017-05-24T14:07:47.525Z,28.57
2017-05-24T14:08:48.151Z,28.25